createdAt,value
2023-04-13T00:01:14.919Z,87
2023-04-13T00:03:15.619Z,87
2023-04-13T00:05:15.148Z,83
2023-04-13T00:07:15.568Z,84
2023-04-13T00:09:15.574Z,85
2023-04-13T00:11:15.540Z,84
2023-04-13T00:13:15.544Z,84
2023-04-13T00:15:15.095Z,85
2023-04-13T00:19:15.580Z,86
2023-04-13T00:21:15.515Z,86
2023-04-13T00:23:15.522Z,86
2023-04-13T00:25:15.598Z,87
2023-04-13T00:27:15.526Z,87
2023-04-13T00:29:15.543Z,87
2023-04-13T00:31:15.680Z,87
2023-04-13T00:35:15.150Z,87
2023-04-13T00:37:15.501Z,87
2023-04-13T00:39:15.599Z,87
2023-04-13T00:41:15.544Z,87
2023-04-13T00:43:15.522Z,87
2023-04-13T00:45:15.154Z,87
2023-04-13T00:47:15.541Z,87
2023-04-13T00:51:15.544Z,87
2023-04-13T00:53:15.517Z,87
2023-04-13T00:55:14.346Z,87
2023-04-13T00:57:15.520Z,87
2023-04-13T00:59:15.550Z,87
2023-04-13T01:03:15.697Z,87
2023-04-13T01:05:15.092Z,87
2023-04-13T01:07:15.596Z,87
2023-04-13T01:09:15.487Z,87
2023-04-13T01:11:15.482Z,88
2023-04-13T01:13:17.022Z,88
2023-04-13T01:15:15.090Z,88
2023-04-13T01:19:15.560Z,88
2023-04-13T01:21:15.528Z,88
2023-04-13T01:23:15.476Z,88
2023-04-13T01:27:15.516Z,87
2023-04-13T01:29:15.066Z,87
2023-04-13T01:33:15.463Z,87
2023-04-13T01:35:15.103Z,88
2023-04-13T01:37:15.568Z,87
2023-04-13T01:39:15.308Z,87
2023-04-13T01:41:15.526Z,87
2023-04-13T01:43:15.495Z,88
2023-04-13T01:45:15.089Z,87
2023-04-13T01:47:15.093Z,88
2023-04-13T01:49:15.576Z,88
2023-04-13T01:51:15.490Z,87
2023-04-13T01:53:15.517Z,87
2023-04-13T01:55:15.575Z,87
2023-04-13T01:57:15.466Z,87
2023-04-13T01:59:15.591Z,87
2023-04-13T02:01:15.160Z,88
2023-04-13T02:05:15.499Z,87
2023-04-13T02:07:15.502Z,87
2023-04-13T02:09:15.587Z,87
2023-04-13T02:11:15.503Z,88
2023-04-13T02:13:15.503Z,88
2023-04-13T02:15:15.571Z,88
2023-04-13T02:17:15.472Z,88
2023-04-13T02:19:15.528Z,88
2023-04-13T02:21:15.505Z,88
2023-04-13T02:23:15.613Z,87
2023-04-13T02:25:15.541Z,87
2023-04-13T02:27:15.064Z,87
2023-04-13T02:29:15.672Z,87
2023-04-13T02:31:15.530Z,87
2023-04-13T02:33:15.529Z,87
2023-04-13T02:35:15.520Z,87
2023-04-13T02:37:15.083Z,87
2023-04-13T02:39:15.517Z,87
2023-04-13T02:41:15.129Z,87
2023-04-13T02:43:15.471Z,87
2023-04-13T02:45:15.510Z,87
2023-04-13T02:47:15.554Z,87
2023-04-13T02:51:15.740Z,87
2023-04-13T02:53:15.554Z,87
2023-04-13T02:55:15.869Z,87
2023-04-13T02:57:15.520Z,87
2023-04-13T02:59:15.680Z,87
2023-04-13T03:01:15.901Z,86
2023-04-13T03:03:15.655Z,86
2023-04-13T03:05:15.143Z,86
2023-04-13T03:07:18.549Z,87
2023-04-13T03:11:15.607Z,87
2023-04-13T03:13:15.489Z,86
2023-04-13T03:15:15.674Z,86
2023-04-13T03:17:16.306Z,86
2023-04-13T03:19:15.636Z,86
2023-04-13T03:21:15.599Z,86
2023-04-13T03:23:15.598Z,86
2023-04-13T03:25:15.681Z,86
2023-04-13T03:27:15.516Z,86
2023-04-13T03:29:15.587Z,86
2023-04-13T03:31:15.561Z,86
2023-04-13T03:33:15.542Z,86
2023-04-13T03:35:15.123Z,86
2023-04-13T03:37:15.535Z,86
2023-04-13T03:39:12.386Z,87
2023-04-13T03:41:15.616Z,86
2023-04-13T03:43:15.602Z,87
2023-04-13T03:45:15.100Z,86
2023-04-13T03:47:15.587Z,87
2023-04-13T03:49:13.578Z,87
2023-04-13T03:51:15.597Z,87
2023-04-13T03:53:15.577Z,87
2023-04-13T03:55:15.177Z,87
2023-04-13T03:57:15.520Z,87
2023-04-13T03:59:12.437Z,87
2023-04-13T04:01:15.502Z,87
2023-04-13T04:03:15.612Z,87
2023-04-13T04:05:15.127Z,87
2023-04-13T04:07:15.512Z,87
2023-04-13T04:09:15.576Z,87
2023-04-13T04:11:13.553Z,87
2023-04-13T04:13:18.840Z,87
2023-04-13T04:15:15.689Z,87
2023-04-13T04:17:15.637Z,87
2023-04-13T04:19:15.510Z,87
2023-04-13T04:21:12.580Z,87
2023-04-13T04:25:15.225Z,87
2023-04-13T04:27:15.564Z,87
2023-04-13T04:29:15.692Z,87
2023-04-13T04:31:13.771Z,87
2023-04-13T04:35:15.159Z,87
2023-04-13T04:37:20.499Z,87
2023-04-13T04:39:15.564Z,87
2023-04-13T04:41:15.591Z,87
2023-04-13T04:43:19.300Z,87
2023-04-13T04:45:12.363Z,88
2023-04-13T04:47:15.595Z,88
2023-04-13T04:51:15.563Z,86
2023-04-13T04:53:15.608Z,87
2023-04-13T04:55:15.712Z,87
2023-04-13T04:57:19.021Z,86
2023-04-13T04:59:15.525Z,87
2023-04-13T05:01:15.691Z,86
2023-04-13T05:03:13.586Z,86
2023-04-13T05:05:15.173Z,86
2023-04-13T05:07:15.500Z,86
2023-04-13T05:09:15.183Z,86
2023-04-13T05:11:15.556Z,86
2023-04-13T05:13:15.611Z,86
2023-04-13T05:15:15.124Z,86
2023-04-13T05:17:15.527Z,85
2023-04-13T05:19:16.355Z,85
2023-04-13T05:21:15.515Z,85
2023-04-13T05:23:15.566Z,86
2023-04-13T05:25:15.189Z,85
2023-04-13T05:27:15.581Z,86
2023-04-13T05:31:15.598Z,85
2023-04-13T05:33:15.520Z,85
2023-04-13T05:37:15.118Z,85
2023-04-13T05:39:15.519Z,85
2023-04-13T05:41:15.557Z,84
2023-04-13T05:43:15.536Z,85
2023-04-13T05:45:15.636Z,84
2023-04-13T05:47:15.533Z,84
2023-04-13T05:49:15.154Z,84
2023-04-13T05:51:14.909Z,83
2023-04-13T05:53:18.906Z,84
2023-04-13T05:55:15.602Z,84
2023-04-13T05:57:15.567Z,84
2023-04-13T05:59:18.475Z,84
2023-04-13T06:01:15.542Z,84
2023-04-13T06:03:18.648Z,84
2023-04-13T06:05:15.604Z,85
2023-04-13T06:07:15.571Z,84
2023-04-13T06:09:15.607Z,83
2023-04-13T06:11:18.380Z,84
2023-04-13T06:13:15.088Z,83
2023-04-13T06:15:15.586Z,83
2023-04-13T06:17:15.581Z,83
2023-04-13T06:19:15.198Z,83
2023-04-13T06:21:15.537Z,83
2023-04-13T06:25:15.686Z,83
2023-04-13T06:27:15.560Z,83
2023-04-13T06:29:15.559Z,83
2023-04-13T06:31:15.523Z,83
2023-04-13T06:33:15.531Z,83
2023-04-13T06:35:15.594Z,83
2023-04-13T06:39:15.554Z,82
2023-04-13T06:41:15.133Z,82
2023-04-13T06:43:22.731Z,83
2023-04-13T06:45:15.516Z,82
2023-04-13T06:47:18.638Z,82
2023-04-13T06:49:15.299Z,82
2023-04-13T06:51:15.610Z,82
2023-04-13T06:53:15.152Z,81
2023-04-13T06:55:12.867Z,82
2023-04-13T06:57:15.020Z,83
2023-04-13T06:59:15.564Z,82
2023-04-13T07:01:19.063Z,82
2023-04-13T07:03:15.592Z,83
2023-04-13T07:05:15.731Z,82
2023-04-13T07:07:15.588Z,80
2023-04-13T07:09:15.985Z,79
2023-04-13T07:11:15.639Z,80
2023-04-13T07:13:15.520Z,79
2023-04-13T07:15:15.512Z,79
2023-04-13T07:17:15.090Z,78
2023-04-13T07:21:15.536Z,76
2023-04-13T07:23:15.510Z,73
2023-04-13T07:25:15.740Z,75
2023-04-13T07:27:15.143Z,75
2023-04-13T07:29:15.516Z,74
2023-04-13T07:31:15.652Z,73
2023-04-13T07:33:15.561Z,73
2023-04-13T07:35:15.504Z,73
2023-04-13T07:37:15.618Z,74
2023-04-13T07:39:15.635Z,74
2023-04-13T07:41:15.544Z,73
2023-04-13T07:43:14.942Z,73
2023-04-13T07:45:13.564Z,71
2023-04-13T07:47:15.090Z,71
2023-04-13T07:49:15.520Z,71
2023-04-13T07:51:15.518Z,71
2023-04-13T07:53:15.532Z,69
2023-04-13T07:55:15.619Z,71
2023-04-13T07:57:15.514Z,71
2023-04-13T07:59:15.534Z,72
2023-04-13T08:01:15.504Z,70
2023-04-13T08:03:15.706Z,70
2023-04-13T08:05:15.673Z,70
2023-04-13T08:07:15.505Z,69
2023-04-13T08:09:15.553Z,70
2023-04-13T08:11:15.089Z,70
2023-04-13T08:15:15.551Z,69
2023-04-13T08:17:15.504Z,70
2023-04-13T08:19:15.535Z,69
2023-04-13T08:21:15.561Z,68
2023-04-13T08:23:15.560Z,68
2023-04-13T08:25:15.696Z,68
2023-04-13T08:27:15.559Z,64
2023-04-13T08:29:15.543Z,65
2023-04-13T08:31:15.187Z,65
2023-04-13T08:33:15.557Z,67
2023-04-13T08:35:15.758Z,64
2023-04-13T08:37:15.674Z,68
2023-04-13T08:39:15.625Z,65
2023-04-13T08:41:15.555Z,66
2023-04-13T08:43:15.527Z,63
2023-04-13T08:45:15.519Z,69
2023-04-13T08:47:15.584Z,66
2023-04-13T08:49:15.566Z,63
2023-04-13T08:53:15.628Z,63
2023-04-13T08:57:15.547Z,66
2023-04-13T08:59:15.830Z,63
2023-04-13T09:01:13.670Z,62
2023-04-13T09:03:15.245Z,63
2023-04-13T09:05:15.644Z,64
2023-04-13T09:07:15.524Z,64
2023-04-13T09:09:15.554Z,63
2023-04-13T09:11:15.685Z,64
2023-04-13T09:13:15.120Z,63
2023-04-13T09:15:15.601Z,61
2023-04-13T09:17:15.632Z,65
2023-04-13T09:19:15.335Z,62
2023-04-13T09:21:15.582Z,65
2023-04-13T09:23:15.743Z,66
2023-04-13T09:25:12.683Z,63
2023-04-13T09:27:15.617Z,65
2023-04-13T09:29:15.242Z,61
2023-04-13T09:31:15.898Z,62
2023-04-13T09:33:17.646Z,60
2023-04-13T09:35:15.740Z,61
2023-04-13T09:37:15.191Z,59
2023-04-13T09:39:15.103Z,61
2023-04-13T09:41:15.639Z,60
2023-04-13T09:43:15.701Z,62
2023-04-13T09:47:15.281Z,65
2023-04-13T09:49:15.588Z,63
2023-04-13T09:51:15.635Z,58
2023-04-13T09:53:12.359Z,57
2023-04-13T09:55:15.348Z,63
2023-04-13T09:57:15.172Z,63
2023-04-13T10:01:15.722Z,60
2023-04-13T10:03:15.775Z,58
2023-04-13T10:05:15.654Z,61
2023-04-13T10:07:15.185Z,59
2023-04-13T10:11:15.750Z,65
2023-04-13T10:13:21.945Z,64
2023-04-13T10:15:15.664Z,59
2023-04-13T10:17:15.187Z,63
2023-04-13T10:19:15.774Z,59
2023-04-13T10:21:15.622Z,57
2023-04-13T10:23:15.635Z,58
2023-04-13T10:25:21.956Z,57
2023-04-13T10:27:13.674Z,58
2023-04-13T10:29:15.619Z,62
2023-04-13T10:31:15.685Z,64
2023-04-13T10:33:15.688Z,65
2023-04-13T10:35:16.074Z,61
2023-04-13T10:37:15.200Z,60
2023-04-13T10:39:15.554Z,60
2023-04-13T10:41:15.727Z,62
2023-04-13T10:43:15.129Z,62
2023-04-13T10:45:15.760Z,61
2023-04-13T10:47:12.578Z,62
2023-04-13T10:49:15.763Z,61
2023-04-13T10:51:13.855Z,61
2023-04-13T10:53:15.657Z,62
2023-04-13T10:55:16.008Z,62
2023-04-13T10:57:15.686Z,62
2023-04-13T10:59:15.664Z,61
2023-04-13T11:01:13.820Z,62
2023-04-13T11:03:16.627Z,62
2023-04-13T11:05:15.641Z,60
2023-04-13T11:07:14.458Z,62
2023-04-13T11:09:15.243Z,61
2023-04-13T11:11:15.370Z,60
2023-04-13T11:13:15.689Z,61
2023-04-13T11:17:15.709Z,64
2023-04-13T11:19:15.694Z,64
2023-04-13T11:21:15.744Z,62
2023-04-13T11:23:13.978Z,60
2023-04-13T11:25:15.868Z,61
2023-04-13T11:27:15.823Z,61
2023-04-13T11:31:15.765Z,61
2023-04-13T11:33:15.385Z,65
2023-04-13T11:35:16.762Z,62
2023-04-13T11:37:15.841Z,61
2023-04-13T11:39:16.058Z,60
2023-04-13T11:41:16.759Z,59
2023-04-13T11:43:15.302Z,58
2023-04-13T11:45:15.802Z,58
2023-04-13T11:47:13.855Z,59
2023-04-13T11:49:15.631Z,59
2023-04-13T11:51:15.634Z,62
2023-04-13T11:55:22.828Z,62
2023-04-13T11:57:15.716Z,59
2023-04-13T11:59:15.324Z,60
2023-04-13T12:01:20.386Z,59
2023-04-13T12:03:31.926Z,57
2023-04-13T12:05:15.749Z,60
2023-04-13T12:07:16.574Z,64
2023-04-13T12:09:17.609Z,68
2023-04-13T12:13:20.578Z,67
2023-04-13T12:19:16.488Z,58
2023-04-13T12:21:16.314Z,58
2023-04-13T12:23:22.192Z,57
2023-04-13T12:25:17.585Z,56
2023-04-13T12:27:18.209Z,60
2023-04-13T12:29:15.340Z,58
2023-04-13T12:31:16.807Z,62
2023-04-13T12:33:15.740Z,59
2023-04-13T12:35:12.564Z,58
2023-04-13T12:41:15.738Z,58
2023-04-13T12:43:16.170Z,60
2023-04-13T12:45:18.085Z,58
2023-04-13T12:47:15.851Z,58
2023-04-13T12:49:15.050Z,58
2023-04-13T12:51:16.001Z,61
2023-04-13T12:55:15.902Z,59
2023-04-13T12:57:15.635Z,59
2023-04-13T13:01:15.744Z,60
2023-04-13T13:03:16.064Z,63
2023-04-13T13:07:16.080Z,61
2023-04-13T13:09:16.101Z,60
2023-04-13T13:11:16.346Z,59
2023-04-13T13:13:15.782Z,62
2023-04-13T13:17:15.477Z,63
2023-04-13T13:19:15.770Z,64
2023-04-13T13:21:15.665Z,66
2023-04-13T13:23:12.640Z,64
2023-04-13T13:27:40.907Z,62
2023-04-13T13:29:15.719Z,62
2023-04-13T13:31:12.665Z,61
2023-04-13T13:33:18.924Z,65
2023-04-13T13:35:15.711Z,60
2023-04-13T13:37:15.729Z,61
2023-04-13T13:39:16.053Z,63
2023-04-13T13:41:15.724Z,64
2023-04-13T13:43:12.916Z,65
2023-04-13T13:45:15.757Z,61
2023-04-13T13:47:16.231Z,62
2023-04-13T13:49:15.915Z,65
2023-04-13T13:51:15.844Z,65
2023-04-13T13:53:15.395Z,67
2023-04-13T13:55:16.108Z,63
2023-04-13T13:57:15.864Z,59
2023-04-13T13:59:13.013Z,62
2023-04-13T14:01:15.926Z,63
2023-04-13T14:03:16.676Z,64
2023-04-13T14:05:13.119Z,60
2023-04-13T14:07:15.888Z,59
2023-04-13T14:09:15.845Z,62
2023-04-13T14:11:16.134Z,59
2023-04-13T14:13:15.940Z,61
2023-04-13T14:15:15.775Z,63
2023-04-13T14:17:15.819Z,63
2023-04-13T14:19:15.871Z,63
2023-04-13T14:21:15.783Z,67
2023-04-13T14:23:15.408Z,63
2023-04-13T14:27:15.901Z,58
2023-04-13T14:31:15.802Z,62
2023-04-13T14:33:15.555Z,62
2023-04-13T14:35:16.002Z,60
2023-04-13T14:37:15.834Z,61
2023-04-13T14:39:15.182Z,61
2023-04-13T14:41:15.884Z,61
2023-04-13T14:43:12.724Z,61
2023-04-13T14:45:15.887Z,60
2023-04-13T14:47:16.157Z,61
2023-04-13T14:49:17.277Z,61
2023-04-13T14:51:16.143Z,61
2023-04-13T14:53:15.412Z,61
2023-04-13T14:55:16.174Z,61
2023-04-13T14:57:15.953Z,63
2023-04-13T14:59:15.911Z,62
2023-04-13T15:01:15.876Z,63
2023-04-13T15:03:12.749Z,64
2023-04-13T15:05:12.761Z,64
2023-04-13T15:07:16.156Z,64
2023-04-13T15:09:15.966Z,63
2023-04-13T15:11:15.939Z,64
2023-04-13T15:13:15.563Z,65
2023-04-13T15:15:16.032Z,65
2023-04-13T15:17:15.849Z,65
2023-04-13T15:19:15.950Z,67
2023-04-13T15:21:15.886Z,67
2023-04-13T15:23:16.784Z,66
2023-04-13T15:25:15.895Z,66
2023-04-13T15:27:15.863Z,66
2023-04-13T15:29:15.840Z,65
2023-04-13T15:31:16.002Z,63
2023-04-13T15:33:15.477Z,63
2023-04-13T15:35:16.013Z,65
2023-04-13T15:37:15.859Z,66
2023-04-13T15:39:16.035Z,65
2023-04-13T15:41:15.852Z,66
2023-04-13T15:43:12.677Z,66
2023-04-13T15:45:15.961Z,66
2023-04-13T15:47:16.001Z,67
2023-04-13T15:49:15.885Z,67
2023-04-13T15:51:15.826Z,68
2023-04-13T15:53:15.513Z,67
2023-04-13T15:55:16.280Z,69
2023-04-13T15:57:15.976Z,69
2023-04-13T15:59:16.063Z,69
2023-04-13T16:01:15.922Z,69
2023-04-13T16:03:16.178Z,68
2023-04-13T16:05:15.902Z,70
2023-04-13T16:07:15.874Z,69
2023-04-13T16:09:15.864Z,69
2023-04-13T16:11:19.551Z,70
2023-04-13T16:13:15.742Z,70
2023-04-13T16:15:15.877Z,70
2023-04-13T16:19:16.023Z,70
2023-04-13T16:21:15.961Z,70
2023-04-13T16:23:15.938Z,70
2023-04-13T16:25:16.020Z,70
2023-04-13T16:27:16.075Z,71
2023-04-13T16:29:15.957Z,72
2023-04-13T16:31:16.001Z,72
2023-04-13T16:33:15.967Z,72
2023-04-13T16:35:16.191Z,73
2023-04-13T16:37:15.135Z,73
2023-04-13T16:39:15.989Z,74
2023-04-13T16:41:12.719Z,75
2023-04-13T16:43:15.522Z,74
2023-04-13T16:45:15.920Z,76
2023-04-13T16:47:15.993Z,77
2023-04-13T16:49:15.977Z,77
2023-04-13T16:51:16.126Z,76
2023-04-13T16:55:15.952Z,76
2023-04-13T16:57:15.957Z,77
2023-04-13T16:59:16.133Z,77
2023-04-13T17:01:17.256Z,77
2023-04-13T17:03:19.213Z,77
2023-04-13T17:05:15.863Z,76
2023-04-13T17:07:19.431Z,77
2023-04-13T17:09:15.980Z,76
2023-04-13T17:11:15.804Z,76
2023-04-13T17:13:16.381Z,76
2023-04-13T17:15:16.068Z,75
2023-04-13T17:17:15.876Z,76
2023-04-13T17:19:15.953Z,77
2023-04-13T17:21:15.955Z,76
2023-04-13T17:23:15.669Z,77
2023-04-13T17:25:17.032Z,78
2023-04-13T17:27:15.901Z,77
2023-04-13T17:29:15.864Z,78
2023-04-13T17:31:15.921Z,79
2023-04-13T17:33:16.380Z,80
2023-04-13T17:35:15.873Z,81
2023-04-13T17:37:15.849Z,82
2023-04-13T17:39:16.415Z,83
2023-04-13T17:41:15.797Z,83
2023-04-13T17:43:15.479Z,83
2023-04-13T17:45:15.867Z,83
2023-04-13T17:47:15.868Z,83
2023-04-13T17:49:15.986Z,83
2023-04-13T17:51:17.708Z,83
2023-04-13T17:53:15.174Z,83
2023-04-13T17:55:17.642Z,83
2023-04-13T17:57:16.490Z,83
2023-04-13T17:59:15.845Z,83
2023-04-13T18:01:15.846Z,83
2023-04-13T18:03:19.707Z,83
2023-04-13T18:05:15.877Z,83
2023-04-13T18:07:15.807Z,83
2023-04-13T18:09:16.041Z,84
2023-04-13T18:11:18.764Z,83
2023-04-13T18:13:15.380Z,83
2023-04-13T18:15:15.864Z,83
2023-04-13T18:17:15.965Z,83
2023-04-13T18:19:17.453Z,83
2023-04-13T18:21:15.144Z,83
2023-04-13T18:23:16.451Z,83
2023-04-13T18:25:15.873Z,83
2023-04-13T18:27:16.046Z,83
2023-04-13T18:29:15.896Z,83
2023-04-13T18:31:15.878Z,83
2023-04-13T18:33:15.423Z,83
2023-04-13T18:35:14.416Z,83
2023-04-13T18:37:15.869Z,83
2023-04-13T18:39:15.898Z,83
2023-04-13T18:41:15.898Z,83
2023-04-13T18:43:18.983Z,83
2023-04-13T18:45:15.898Z,83
2023-04-13T18:47:15.821Z,84
2023-04-13T18:49:16.177Z,83
2023-04-13T18:51:15.941Z,83
2023-04-13T18:53:19.938Z,83
2023-04-13T18:55:15.459Z,83
2023-04-13T18:57:15.870Z,84
2023-04-13T19:01:16.147Z,84
2023-04-13T19:03:16.149Z,83
2023-04-13T19:05:15.575Z,84
2023-04-13T19:07:13.947Z,84
2023-04-13T19:09:15.879Z,83
2023-04-13T19:13:15.409Z,83
2023-04-13T19:15:15.562Z,83
2023-04-13T19:17:17.114Z,84
2023-04-13T19:19:15.928Z,84
2023-04-13T19:21:15.876Z,84
2023-04-13T19:23:16.070Z,84
2023-04-13T19:25:15.590Z,84
2023-04-13T19:27:15.906Z,84
2023-04-13T19:29:16.184Z,84
2023-04-13T19:31:16.127Z,84
2023-04-13T19:33:15.907Z,84
2023-04-13T19:35:15.655Z,84
2023-04-13T19:37:15.859Z,84
2023-04-13T19:39:15.894Z,84
2023-04-13T19:41:16.045Z,84
2023-04-13T19:43:18.703Z,84
2023-04-13T19:45:15.882Z,84
2023-04-13T19:47:15.235Z,84
2023-04-13T19:49:15.653Z,84
2023-04-13T19:51:16.022Z,83
2023-04-13T19:53:18.275Z,84
2023-04-13T19:55:17.313Z,84
2023-04-13T19:59:16.068Z,84
2023-04-13T20:01:15.973Z,84
2023-04-13T20:03:19.295Z,84
2023-04-13T20:05:15.494Z,84
2023-04-13T20:07:15.978Z,84
2023-04-13T20:09:16.852Z,84
2023-04-13T20:11:16.097Z,84
2023-04-13T20:15:15.461Z,84
2023-04-13T20:17:16.128Z,84
2023-04-13T20:19:19.390Z,83
2023-04-13T20:21:16.109Z,84
2023-04-13T20:23:16.220Z,84
2023-04-13T20:25:15.541Z,84
2023-04-13T20:27:13.948Z,84
2023-04-13T20:29:16.467Z,84
2023-04-13T20:31:16.666Z,84
2023-04-13T20:33:16.475Z,84
2023-04-13T20:35:15.653Z,84
2023-04-13T20:37:18.265Z,84
2023-04-13T20:39:15.906Z,84
2023-04-13T20:41:16.051Z,84
2023-04-13T20:43:18.734Z,84
2023-04-13T20:45:15.953Z,84
2023-04-13T20:47:16.050Z,85
2023-04-13T20:49:16.408Z,85
2023-04-13T20:51:15.976Z,85
2023-04-13T20:55:15.612Z,85
2023-04-13T20:57:15.939Z,85
2023-04-13T20:59:16.126Z,86
2023-04-13T21:01:16.286Z,86
2023-04-13T21:03:16.234Z,86
2023-04-13T21:05:18.219Z,86
2023-04-13T21:07:16.279Z,86
2023-04-13T21:09:15.887Z,86
2023-04-13T21:11:18.639Z,86
2023-04-13T21:13:15.875Z,86
2023-04-13T21:15:15.486Z,86
2023-04-13T21:17:16.902Z,87
2023-04-13T21:19:15.947Z,87
2023-04-13T21:21:15.873Z,87
2023-04-13T21:23:19.561Z,87
2023-04-13T21:25:16.075Z,87
2023-04-13T21:27:15.852Z,87
2023-04-13T21:29:15.924Z,87
2023-04-13T21:31:16.929Z,87
2023-04-13T21:33:16.005Z,87
2023-04-13T21:35:15.927Z,87
2023-04-13T21:37:15.914Z,87
2023-04-13T21:39:17.898Z,87
2023-04-13T21:41:15.923Z,87
2023-04-13T21:43:15.903Z,87
2023-04-13T21:45:17.694Z,87
2023-04-13T21:47:16.083Z,88
2023-04-13T21:49:15.918Z,87
2023-04-13T21:51:15.915Z,87
2023-04-13T21:53:15.845Z,88
2023-04-13T21:55:17.656Z,87
2023-04-13T21:57:15.537Z,87
2023-04-13T21:59:16.026Z,87
2023-04-13T22:01:18.740Z,88
2023-04-13T22:03:16.025Z,87
2023-04-13T22:05:15.677Z,88
2023-04-13T22:07:17.340Z,88
2023-04-13T22:09:16.322Z,88
2023-04-13T22:11:16.190Z,88
2023-04-13T22:13:17.794Z,88
2023-04-13T22:15:16.408Z,88
2023-04-13T22:17:15.873Z,88
2023-04-13T22:19:19.354Z,88
2023-04-13T22:21:18.440Z,88
2023-04-13T22:23:15.979Z,88
2023-04-13T22:25:16.122Z,88
2023-04-13T22:27:16.276Z,88
2023-04-13T22:29:18.765Z,88
2023-04-13T22:31:16.123Z,88
2023-04-13T22:33:16.027Z,88
2023-04-13T22:35:18.154Z,88
2023-04-13T22:37:17.038Z,89
2023-04-13T22:39:16.088Z,88
2023-04-13T22:41:18.720Z,89
2023-04-13T22:43:16.156Z,88
2023-04-13T22:45:16.042Z,88
2023-04-13T22:47:15.502Z,88
2023-04-13T22:49:15.936Z,88
2023-04-13T22:51:13.921Z,88
2023-04-13T22:53:16.021Z,88
2023-04-13T22:55:16.053Z,88
2023-04-13T22:57:16.859Z,88
2023-04-13T22:59:17.978Z,88
2023-04-13T23:01:16.004Z,88
2023-04-13T23:03:16.119Z,88
2023-04-13T23:05:19.210Z,88
2023-04-13T23:07:16.023Z,88
2023-04-13T23:09:19.558Z,88
2023-04-13T23:11:15.978Z,88
2023-04-13T23:13:15.874Z,89
2023-04-13T23:15:16.016Z,88
2023-04-13T23:17:15.918Z,88
2023-04-13T23:19:18.806Z,89
2023-04-13T23:21:16.073Z,89
2023-04-13T23:25:17.757Z,89
2023-04-13T23:27:16.080Z,89
2023-04-13T23:29:16.092Z,89
2023-04-13T23:33:18.654Z,89
2023-04-13T23:35:15.690Z,89
2023-04-13T23:37:16.126Z,89
2023-04-13T23:39:14.617Z,89
2023-04-13T23:41:18.395Z,89
2023-04-13T23:45:17.317Z,89
2023-04-13T23:47:16.123Z,89
2023-04-13T23:49:15.867Z,89
2023-04-13T23:51:18.290Z,88
2023-04-13T23:53:16.115Z,89
2023-04-13T23:55:16.093Z,89
2023-04-13T23:57:15.690Z,89
2023-04-13T23:59:16.062Z,89
